createdAt,value
2023-05-19T00:00:25.076Z,10.18
2023-05-19T00:02:51.965Z,10.18
2023-05-19T00:05:19.189Z,10.18
2023-05-19T00:07:46.198Z,10.22
2023-05-19T00:10:13.441Z,10.20
2023-05-19T00:12:40.382Z,10.21
2023-05-19T00:15:07.820Z,10.21
2023-05-19T00:17:34.519Z,10.11
2023-05-19T00:20:01.552Z,10.15
2023-05-19T00:22:28.249Z,10.13
2023-05-19T00:24:54.852Z,9.99
2023-05-19T00:27:21.442Z,9.92
2023-05-19T00:29:48.043Z,10.11
2023-05-19T00:32:15.736Z,10.05
2023-05-19T00:34:44.854Z,10.11
2023-05-19T00:37:11.624Z,10.09
2023-05-19T00:39:38.213Z,10.07
2023-05-19T00:42:05.861Z,10.11
2023-05-19T00:44:32.446Z,10.07
2023-05-19T00:46:59.225Z,9.98
2023-05-19T00:49:26.695Z,9.97
2023-05-19T00:51:53.315Z,10.07
2023-05-19T00:54:20.715Z,9.97
2023-05-19T00:56:47.523Z,10.00
2023-05-19T00:59:14.243Z,9.88
2023-05-19T01:01:40.925Z,9.88
2023-05-19T01:04:10.031Z,9.90
2023-05-19T01:06:39.598Z,9.86
2023-05-19T01:09:06.330Z,9.89
2023-05-19T01:11:36.078Z,9.73
2023-05-19T01:14:02.725Z,9.67
2023-05-19T01:16:32.240Z,9.60
2023-05-19T01:19:10.897Z,9.63
2023-05-19T01:22:07.450Z,9.54
2023-05-19T01:24:37.535Z,9.54
2023-05-19T01:27:24.968Z,9.55
2023-05-19T01:30:13.072Z,9.53
2023-05-19T01:32:41.909Z,9.50
2023-05-19T01:35:09.886Z,9.46
2023-05-19T01:37:37.861Z,9.40
2023-05-19T01:40:08.893Z,9.38
2023-05-19T01:42:39.908Z,9.28
2023-05-19T01:45:20.351Z,9.28
2023-05-19T01:47:52.844Z,9.27
2023-05-19T01:50:21.106Z,9.23
2023-05-19T01:52:49.718Z,9.13
2023-05-19T01:55:16.888Z,9.12
2023-05-19T01:57:54.708Z,9.12
2023-05-19T02:00:40.708Z,9.06
2023-05-19T02:03:07.432Z,9.04
2023-05-19T02:05:46.243Z,8.95
2023-05-19T02:08:20.528Z,8.95
2023-05-19T02:10:58.149Z,8.90
2023-05-19T02:13:28.725Z,8.92
2023-05-19T02:15:59.211Z,8.92
2023-05-19T02:18:29.938Z,8.84
2023-05-19T02:20:56.676Z,8.84
2023-05-19T02:23:24.276Z,8.78
2023-05-19T02:25:50.974Z,8.81
2023-05-19T02:28:18.411Z,8.78
2023-05-19T02:30:45.278Z,8.74
2023-05-19T02:33:12.945Z,8.73
2023-05-19T02:35:39.664Z,8.73
2023-05-19T02:38:07.242Z,8.75
2023-05-19T02:40:34.101Z,8.70
2023-05-19T02:43:01.712Z,8.76
2023-05-19T02:45:29.246Z,8.74
2023-05-19T02:47:57.426Z,8.71
2023-05-19T02:50:25.204Z,8.60
2023-05-19T02:52:52.794Z,8.55
2023-05-19T02:55:19.712Z,8.54
2023-05-19T02:57:46.540Z,8.49
2023-05-19T03:00:13.683Z,8.42
2023-05-19T03:03:10.398Z,8.44
2023-05-19T03:05:37.281Z,8.32
2023-05-19T03:08:04.104Z,8.30
2023-05-19T03:10:31.046Z,8.26
2023-05-19T03:12:57.793Z,8.23
2023-05-19T03:15:24.499Z,8.19
2023-05-19T03:17:52.019Z,8.16
2023-05-19T03:20:19.058Z,8.09
2023-05-19T03:22:45.693Z,8.16
2023-05-19T03:25:12.430Z,8.18
2023-05-19T03:27:39.068Z,8.24
2023-05-19T03:30:06.897Z,8.32
2023-05-19T03:32:38.957Z,8.38
2023-05-19T03:35:06.167Z,8.48
2023-05-19T03:37:33.361Z,8.58
2023-05-19T03:40:00.566Z,8.67
2023-05-19T03:42:27.908Z,8.81
2023-05-19T03:44:54.547Z,8.88
2023-05-19T03:47:21.406Z,8.97
2023-05-19T03:49:48.099Z,9.14
2023-05-19T03:52:34.971Z,9.32
2023-05-19T03:55:20.255Z,9.50
2023-05-19T03:57:47.686Z,9.63
2023-05-19T04:00:15.064Z,9.77
2023-05-19T04:02:42.087Z,9.99
2023-05-19T04:05:09.383Z,9.97
2023-05-19T04:07:37.291Z,10.12
2023-05-19T04:10:05.797Z,10.22
2023-05-19T04:12:33.114Z,10.32
2023-05-19T04:14:59.918Z,10.46
2023-05-19T04:17:27.654Z,10.80
2023-05-19T04:19:55.287Z,10.96
2023-05-19T04:22:22.513Z,11.02
2023-05-19T04:24:50.516Z,10.85
2023-05-19T04:27:17.821Z,10.82
2023-05-19T04:29:46.136Z,10.93
2023-05-19T04:32:17.470Z,10.87
2023-05-19T04:34:46.451Z,11.00
2023-05-19T04:37:19.984Z,10.79
2023-05-19T04:39:46.854Z,10.95
2023-05-19T04:42:14.529Z,11.14
2023-05-19T04:44:41.225Z,11.22
2023-05-19T04:47:09.053Z,11.15
2023-05-19T04:49:39.027Z,11.51
2023-05-19T04:52:07.574Z,11.62
2023-05-19T04:54:37.933Z,11.71
2023-05-19T04:57:05.630Z,11.77
2023-05-19T04:59:35.562Z,11.59
2023-05-19T05:02:02.458Z,11.73
2023-05-19T05:04:31.460Z,11.98
2023-05-19T05:06:58.586Z,11.96
2023-05-19T05:09:26.328Z,12.12
2023-05-19T05:11:54.230Z,12.32
2023-05-19T05:14:21.140Z,12.30
2023-05-19T05:16:48.290Z,12.57
2023-05-19T05:19:22.205Z,12.65
2023-05-19T05:21:49.297Z,12.72
2023-05-19T05:24:16.945Z,12.49
2023-05-19T05:26:49.454Z,12.61
2023-05-19T05:29:16.796Z,12.45
2023-05-19T05:31:43.423Z,12.63
2023-05-19T05:34:10.887Z,12.52
2023-05-19T05:36:38.590Z,12.76
2023-05-19T05:39:09.981Z,12.85
2023-05-19T05:41:37.945Z,12.70
2023-05-19T05:44:11.537Z,12.59
2023-05-19T05:46:41.471Z,12.33
2023-05-19T05:49:09.159Z,12.50
2023-05-19T05:51:36.304Z,12.87
2023-05-19T05:54:06.457Z,12.76
2023-05-19T05:56:39.116Z,12.50
2023-05-19T05:59:08.207Z,12.87
2023-05-19T06:01:38.266Z,12.92
2023-05-19T06:04:08.246Z,13.04
2023-05-19T06:06:36.035Z,12.96
2023-05-19T06:09:03.067Z,13.06
2023-05-19T06:11:33.157Z,13.21
2023-05-19T06:14:00.199Z,13.58
2023-05-19T06:16:51.816Z,13.50
2023-05-19T06:19:20.058Z,13.88
2023-05-19T06:21:46.850Z,14.09
2023-05-19T06:24:14.681Z,14.50
2023-05-19T06:26:41.837Z,14.86
2023-05-19T06:29:08.674Z,15.25
2023-05-19T06:31:35.637Z,15.17
2023-05-19T06:34:12.379Z,15.44
2023-05-19T06:36:41.344Z,15.25
2023-05-19T06:39:08.600Z,15.42
2023-05-19T06:41:37.340Z,15.51
2023-05-19T06:44:04.481Z,15.69
2023-05-19T06:46:33.365Z,15.77
2023-05-19T06:49:00.160Z,15.94
2023-05-19T06:51:29.773Z,15.96
2023-05-19T06:53:57.086Z,16.02
2023-05-19T06:56:24.285Z,16.08
2023-05-19T06:58:51.241Z,16.11
2023-05-19T07:01:20.517Z,16.17
2023-05-19T07:03:53.289Z,16.35
2023-05-19T07:06:21.115Z,16.56
2023-05-19T07:08:48.180Z,16.67
2023-05-19T07:11:15.260Z,16.81
2023-05-19T07:13:42.921Z,16.76
2023-05-19T07:16:10.279Z,16.84
2023-05-19T07:18:36.996Z,16.95
2023-05-19T07:21:03.847Z,16.69
2023-05-19T07:23:31.283Z,15.97
2023-05-19T07:25:58.097Z,16.31
2023-05-19T07:28:24.740Z,16.42
2023-05-19T07:30:51.926Z,16.78
2023-05-19T07:33:18.658Z,15.89
2023-05-19T07:35:46.254Z,16.11
2023-05-19T07:38:12.877Z,16.22
2023-05-19T07:40:39.568Z,16.56
2023-05-19T07:43:06.318Z,16.95
2023-05-19T07:45:34.365Z,17.23
2023-05-19T07:48:01.127Z,17.52
2023-05-19T07:50:30.148Z,17.85
2023-05-19T07:52:56.985Z,18.01
2023-05-19T07:55:23.662Z,18.52
2023-05-19T07:57:51.157Z,18.32
2023-05-19T08:00:18.137Z,17.55
2023-05-19T08:02:44.955Z,17.80
2023-05-19T08:05:11.704Z,18.47
2023-05-19T08:07:38.328Z,17.46
2023-05-19T08:10:05.240Z,18.30
2023-05-19T08:12:32.440Z,17.07
2023-05-19T08:15:01.318Z,17.26
2023-05-19T08:17:28.549Z,18.16
2023-05-19T08:19:55.261Z,18.28
2023-05-19T08:22:21.955Z,19.24
2023-05-19T08:24:49.794Z,19.04
2023-05-19T08:27:16.739Z,19.78
2023-05-19T08:29:43.488Z,19.88
2023-05-19T08:32:12.971Z,19.70
2023-05-19T08:34:39.891Z,20.21
2023-05-19T08:37:07.017Z,20.60
2023-05-19T08:39:34.802Z,20.97
2023-05-19T08:42:02.427Z,21.41
2023-05-19T08:44:30.770Z,21.64
2023-05-19T08:47:03.325Z,20.86
2023-05-19T08:49:35.638Z,21.74
2023-05-19T08:52:17.565Z,21.74
2023-05-19T08:54:51.021Z,21.01
2023-05-19T08:57:18.105Z,21.64
2023-05-19T08:59:44.868Z,21.84
2023-05-19T09:02:13.325Z,21.87
2023-05-19T09:04:40.392Z,21.81
2023-05-19T09:07:07.084Z,22.27
2023-05-19T09:09:33.720Z,20.80
2023-05-19T09:12:00.911Z,20.54
2023-05-19T09:14:27.545Z,20.84
2023-05-19T09:16:54.165Z,20.21
2023-05-19T09:19:21.314Z,19.39
2023-05-19T09:21:59.947Z,19.00
2023-05-19T09:24:27.092Z,20.05
2023-05-19T09:26:58.040Z,20.96
2023-05-19T09:29:26.516Z,21.14
2023-05-19T09:31:56.030Z,21.48
2023-05-19T09:34:24.850Z,21.96
2023-05-19T09:36:53.497Z,21.68
2023-05-19T09:39:25.319Z,21.56
2023-05-19T09:41:53.901Z,21.45
2023-05-19T09:44:20.997Z,21.19
2023-05-19T09:46:51.197Z,21.14
2023-05-19T09:49:25.830Z,19.79
2023-05-19T09:51:56.729Z,20.23
2023-05-19T09:54:24.856Z,20.62
2023-05-19T09:57:02.028Z,21.19
2023-05-19T09:59:32.356Z,21.83
2023-05-19T10:02:01.300Z,22.00
2023-05-19T10:04:29.737Z,22.43
2023-05-19T10:06:59.652Z,21.92
2023-05-19T10:09:30.582Z,22.18
2023-05-19T10:11:58.164Z,21.94
2023-05-19T10:14:27.237Z,21.62
2023-05-19T10:16:55.599Z,21.64
2023-05-19T10:19:24.387Z,21.42
2023-05-19T10:21:51.802Z,21.04
2023-05-19T10:24:18.973Z,21.06
2023-05-19T10:26:48.148Z,20.17
2023-05-19T10:29:17.575Z,20.42
2023-05-19T10:31:45.314Z,20.66
2023-05-19T10:34:42.872Z,20.53
2023-05-19T10:37:31.249Z,21.17
2023-05-19T10:39:58.388Z,21.36
2023-05-19T10:42:41.222Z,21.27
2023-05-19T10:45:18.407Z,22.08
2023-05-19T10:47:45.263Z,22.59
2023-05-19T10:50:12.256Z,22.54
2023-05-19T10:52:40.290Z,22.92
2023-05-19T10:55:15.715Z,23.44
2023-05-19T10:57:54.322Z,23.69
2023-05-19T11:00:27.960Z,24.04
2023-05-19T11:02:57.926Z,23.87
2023-05-19T11:05:30.798Z,22.52
2023-05-19T11:08:06.104Z,22.37
2023-05-19T11:10:32.763Z,23.29
2023-05-19T11:12:59.568Z,23.55
2023-05-19T11:15:27.696Z,23.26
2023-05-19T11:17:54.744Z,23.16
2023-05-19T11:20:25.682Z,22.31
2023-05-19T11:23:09.275Z,22.29
2023-05-19T11:25:43.090Z,22.92
2023-05-19T11:28:12.428Z,22.85
2023-05-19T11:30:42.365Z,22.67
2023-05-19T11:33:09.159Z,21.79
2023-05-19T11:35:37.363Z,21.89
2023-05-19T11:38:04.224Z,22.38
2023-05-19T11:40:31.118Z,22.60
2023-05-19T11:42:58.050Z,22.72
2023-05-19T11:45:28.963Z,22.11
2023-05-19T11:48:02.517Z,22.63
2023-05-19T11:50:31.704Z,23.04
2023-05-19T11:53:00.212Z,23.16
2023-05-19T11:55:27.202Z,22.74
2023-05-19T11:58:05.574Z,22.64
2023-05-19T12:00:37.934Z,22.59
2023-05-19T12:03:05.352Z,22.32
2023-05-19T12:05:35.437Z,21.61
2023-05-19T12:08:06.303Z,22.68
2023-05-19T12:10:34.351Z,23.11
2023-05-19T12:13:02.111Z,23.39
2023-05-19T12:15:28.844Z,22.34
2023-05-19T12:18:00.878Z,21.81
2023-05-19T12:20:29.038Z,23.16
2023-05-19T12:22:56.369Z,23.95
2023-05-19T12:25:23.807Z,24.39
2023-05-19T12:27:52.768Z,25.33
2023-05-19T12:30:26.249Z,24.90
2023-05-19T12:32:54.233Z,24.80
2023-05-19T12:35:23.292Z,25.10
2023-05-19T12:37:50.709Z,25.43
2023-05-19T12:40:17.558Z,25.38
2023-05-19T12:42:48.795Z,25.74
2023-05-19T12:45:15.520Z,25.57
2023-05-19T12:47:42.177Z,25.72
2023-05-19T12:50:10.214Z,26.07
2023-05-19T12:52:45.393Z,26.34
2023-05-19T12:55:13.979Z,26.67
2023-05-19T12:57:42.854Z,26.66
2023-05-19T13:00:17.497Z,26.45
2023-05-19T13:03:02.954Z,26.29
2023-05-19T13:05:30.899Z,26.17
2023-05-19T13:08:13.693Z,26.16
2023-05-19T13:10:41.789Z,25.93
2023-05-19T13:13:09.369Z,25.66
2023-05-19T13:15:38.666Z,25.18
2023-05-19T13:18:07.150Z,24.75
2023-05-19T13:20:34.339Z,25.33
2023-05-19T13:23:01.801Z,25.98
2023-05-19T13:25:28.469Z,26.50
2023-05-19T13:27:55.196Z,26.23
2023-05-19T13:30:22.677Z,26.14
2023-05-19T13:32:49.633Z,26.88
2023-05-19T13:35:16.376Z,27.51
2023-05-19T13:37:43.181Z,27.84
2023-05-19T13:40:10.794Z,29.29
2023-05-19T13:42:37.952Z,31.79
2023-05-19T13:45:05.219Z,33.39
2023-05-19T13:47:31.854Z,33.11
2023-05-19T13:49:58.637Z,34.18
2023-05-19T13:52:27.547Z,33.44
2023-05-19T13:54:56.640Z,35.16
2023-05-19T13:57:26.530Z,36.98
2023-05-19T14:00:01.828Z,36.69
2023-05-19T14:02:39.304Z,37.90
2023-05-19T14:05:07.231Z,37.77
2023-05-19T14:07:35.012Z,37.30
2023-05-19T14:10:06.889Z,37.02
2023-05-19T14:12:41.464Z,37.48
2023-05-19T14:15:19.609Z,37.72
2023-05-19T14:17:46.314Z,37.07
2023-05-19T14:20:13.230Z,34.71
2023-05-19T14:22:39.815Z,30.85
2023-05-19T14:25:07.166Z,29.29
2023-05-19T14:27:33.777Z,27.86
2023-05-19T14:30:00.509Z,26.68
2023-05-19T14:32:30.080Z,25.80
2023-05-19T14:34:57.075Z,25.61
2023-05-19T14:37:24.161Z,24.89
2023-05-19T14:39:50.825Z,24.67
2023-05-19T14:42:17.430Z,24.54
2023-05-19T14:44:44.075Z,24.52
2023-05-19T14:47:12.334Z,24.50
2023-05-19T14:49:39.082Z,24.66
2023-05-19T14:52:05.816Z,24.75
2023-05-19T14:54:32.454Z,24.66
2023-05-19T14:56:59.032Z,24.53
2023-05-19T14:59:25.946Z,24.52
2023-05-19T15:01:52.556Z,24.86
2023-05-19T15:04:19.253Z,24.81
2023-05-19T15:06:48.203Z,24.58
2023-05-19T15:09:19.125Z,24.25
2023-05-19T15:11:45.755Z,24.34
2023-05-19T15:14:12.383Z,24.20
2023-05-19T15:16:38.970Z,24.18
2023-05-19T15:19:05.761Z,24.35
2023-05-19T15:21:32.543Z,24.35
2023-05-19T15:23:59.198Z,23.90
2023-05-19T15:26:28.301Z,23.72
2023-05-19T15:28:56.269Z,23.60
2023-05-19T15:31:22.985Z,23.47
2023-05-19T15:33:49.683Z,23.34
2023-05-19T15:36:17.174Z,23.25
2023-05-19T15:38:43.964Z,23.31
2023-05-19T15:41:11.064Z,23.42
2023-05-19T15:43:37.963Z,23.44
2023-05-19T15:46:05.127Z,23.40
2023-05-19T15:48:32.352Z,23.33
2023-05-19T15:50:59.592Z,23.12
2023-05-19T15:53:26.689Z,22.89
2023-05-19T15:55:53.333Z,22.64
2023-05-19T15:58:20.020Z,22.43
2023-05-19T16:00:46.705Z,22.12
2023-05-19T16:03:13.350Z,21.78
2023-05-19T16:05:40.028Z,21.40
2023-05-19T16:08:08.452Z,21.01
2023-05-19T16:10:35.570Z,20.85
2023-05-19T16:13:02.371Z,20.76
2023-05-19T16:15:28.983Z,20.59
2023-05-19T16:17:55.811Z,20.42
2023-05-19T16:20:26.745Z,20.46
2023-05-19T16:22:54.209Z,20.24
2023-05-19T16:25:21.071Z,20.15
2023-05-19T16:27:47.878Z,20.14
2023-05-19T16:30:14.697Z,20.14
2023-05-19T16:32:41.393Z,20.29
2023-05-19T16:35:08.660Z,20.44
2023-05-19T16:37:35.362Z,20.53
2023-05-19T16:40:02.088Z,20.68
2023-05-19T16:42:28.706Z,20.77
2023-05-19T16:44:55.555Z,20.78
2023-05-19T16:47:22.149Z,20.73
2023-05-19T16:49:48.765Z,20.73
2023-05-19T16:52:15.407Z,20.63
2023-05-19T16:54:42.086Z,20.62
2023-05-19T16:57:09.801Z,20.42
2023-05-19T16:59:36.525Z,20.38
2023-05-19T17:02:03.462Z,20.30
2023-05-19T17:04:31.030Z,20.26
2023-05-19T17:06:57.780Z,20.27
2023-05-19T17:09:26.227Z,20.28
2023-05-19T17:11:53.700Z,20.33
2023-05-19T17:14:20.890Z,20.44
2023-05-19T17:16:47.571Z,20.55
2023-05-19T17:19:14.424Z,20.72
2023-05-19T17:21:41.480Z,20.79
2023-05-19T17:24:08.076Z,20.69
2023-05-19T17:26:34.738Z,20.69
2023-05-19T17:29:01.338Z,20.50
2023-05-19T17:31:27.909Z,20.48
2023-05-19T17:33:54.551Z,20.38
2023-05-19T17:36:21.763Z,20.31
2023-05-19T17:38:48.330Z,20.29
2023-05-19T17:41:15.026Z,20.13
2023-05-19T17:43:41.863Z,19.95
2023-05-19T17:46:08.711Z,19.87
2023-05-19T17:48:36.330Z,19.79
2023-05-19T17:51:04.593Z,19.60
2023-05-19T17:53:33.082Z,19.53
2023-05-19T17:56:01.463Z,19.51
2023-05-19T17:58:28.839Z,19.19
2023-05-19T18:00:56.027Z,19.11
2023-05-19T18:03:23.096Z,18.96
2023-05-19T18:05:51.058Z,18.84
2023-05-19T18:08:18.274Z,18.72
2023-05-19T18:10:46.110Z,18.59
2023-05-19T18:13:15.720Z,18.45
2023-05-19T18:15:42.526Z,18.35
2023-05-19T18:18:10.925Z,18.14
2023-05-19T18:20:44.244Z,18.10
2023-05-19T18:23:11.351Z,17.94
2023-05-19T18:25:38.149Z,17.84
2023-05-19T18:28:05.022Z,17.77
2023-05-19T18:30:31.909Z,17.70
2023-05-19T18:33:02.103Z,17.47
2023-05-19T18:35:28.999Z,17.23
2023-05-19T18:37:56.729Z,17.28
2023-05-19T18:40:23.612Z,17.19
2023-05-19T18:42:50.560Z,17.02
2023-05-19T18:45:17.315Z,16.87
2023-05-19T18:47:43.997Z,16.78
2023-05-19T18:50:10.793Z,16.68
2023-05-19T18:52:37.451Z,16.57
2023-05-19T18:55:04.327Z,16.55
2023-05-19T18:57:31.033Z,16.42
2023-05-19T18:59:58.107Z,16.34
2023-05-19T19:02:24.726Z,16.25
2023-05-19T19:04:51.413Z,16.24
2023-05-19T19:07:18.074Z,16.12
2023-05-19T19:09:44.710Z,16.15
2023-05-19T19:12:11.324Z,16.06
2023-05-19T19:14:38.525Z,15.98
2023-05-19T19:17:05.329Z,15.89
2023-05-19T19:19:32.270Z,15.88
2023-05-19T19:21:59.056Z,15.78
2023-05-19T19:24:26.536Z,15.71
2023-05-19T19:26:53.147Z,15.58
2023-05-19T19:29:21.846Z,15.51
2023-05-19T19:31:48.760Z,15.46
2023-05-19T19:34:15.670Z,15.41
2023-05-19T19:36:42.308Z,15.37
2023-05-19T19:39:09.477Z,15.34
2023-05-19T19:41:36.671Z,15.22
2023-05-19T19:44:03.595Z,15.13
2023-05-19T19:46:30.282Z,15.08
2023-05-19T19:48:59.217Z,14.99
2023-05-19T19:51:26.743Z,14.87
2023-05-19T19:53:53.366Z,14.84
2023-05-19T19:56:20.386Z,14.77
2023-05-19T19:58:46.969Z,14.66
2023-05-19T20:01:13.600Z,14.58
2023-05-19T20:03:40.266Z,14.51
2023-05-19T20:06:07.637Z,14.41
2023-05-19T20:08:34.259Z,14.37
2023-05-19T20:11:00.916Z,14.31
2023-05-19T20:13:27.527Z,14.22
2023-05-19T20:15:54.256Z,14.17
2023-05-19T20:18:20.903Z,14.13
2023-05-19T20:20:47.575Z,14.06
2023-05-19T20:23:16.223Z,14.04
2023-05-19T20:25:54.790Z,13.97
2023-05-19T20:28:29.661Z,13.97
2023-05-19T20:30:56.300Z,13.90
2023-05-19T20:33:22.973Z,13.81
2023-05-19T20:35:49.585Z,13.77
2023-05-19T20:38:16.351Z,13.77
2023-05-19T20:40:43.021Z,13.65
2023-05-19T20:43:09.950Z,13.65
2023-05-19T20:45:36.798Z,13.55
2023-05-19T20:48:03.893Z,13.43
2023-05-19T20:50:31.865Z,13.38
2023-05-19T20:52:58.710Z,13.31
2023-05-19T20:55:25.496Z,13.30
2023-05-19T20:57:52.164Z,13.26
2023-05-19T21:00:19.023Z,13.26
2023-05-19T21:02:45.732Z,13.26
2023-05-19T21:05:12.558Z,13.24
2023-05-19T21:07:39.275Z,13.20
2023-05-19T21:10:06.524Z,13.17
2023-05-19T21:12:34.289Z,13.07
2023-05-19T21:15:01.882Z,13.04
2023-05-19T21:17:28.643Z,13.03
2023-05-19T21:20:00.267Z,12.98
2023-05-19T21:22:27.419Z,12.81
2023-05-19T21:24:54.400Z,12.75
2023-05-19T21:27:21.382Z,12.67
2023-05-19T21:29:52.859Z,12.59
2023-05-19T21:32:21.179Z,12.59
2023-05-19T21:34:47.816Z,12.60
2023-05-19T21:37:16.350Z,12.57
2023-05-19T21:39:44.360Z,12.60
2023-05-19T21:42:11.144Z,12.58
2023-05-19T21:44:37.836Z,12.56
2023-05-19T21:47:04.511Z,12.51
2023-05-19T21:49:31.471Z,12.50
2023-05-19T21:51:58.385Z,12.45
2023-05-19T21:54:27.173Z,12.44
2023-05-19T21:56:53.816Z,12.36
2023-05-19T21:59:23.171Z,12.34
2023-05-19T22:01:51.430Z,12.33
2023-05-19T22:04:21.068Z,12.30
2023-05-19T22:06:47.765Z,12.30
2023-05-19T22:09:14.399Z,12.33
2023-05-19T22:11:41.261Z,12.39
2023-05-19T22:14:07.931Z,12.45
2023-05-19T22:16:34.942Z,12.54
2023-05-19T22:19:01.702Z,12.51
2023-05-19T22:21:28.473Z,12.49
2023-05-19T22:23:55.105Z,12.57
2023-05-19T22:26:22.127Z,12.59
2023-05-19T22:28:50.520Z,12.63
2023-05-19T22:31:17.659Z,12.66
2023-05-19T22:33:44.373Z,12.68
2023-05-19T22:36:11.131Z,12.67
2023-05-19T22:38:37.857Z,12.71
2023-05-19T22:41:04.689Z,12.76
2023-05-19T22:43:31.454Z,12.82
2023-05-19T22:45:58.145Z,12.82
2023-05-19T22:48:26.286Z,12.89
2023-05-19T22:50:52.885Z,12.96
2023-05-19T22:53:19.499Z,12.99
2023-05-19T22:55:46.235Z,12.94
2023-05-19T22:58:12.836Z,12.92
2023-05-19T23:00:39.427Z,12.93
2023-05-19T23:03:06.165Z,12.89
2023-05-19T23:05:33.025Z,12.86
2023-05-19T23:07:59.739Z,12.85
2023-05-19T23:10:26.386Z,12.83
2023-05-19T23:12:53.085Z,12.88
2023-05-19T23:15:19.770Z,12.90
2023-05-19T23:17:46.420Z,12.89
2023-05-19T23:20:13.490Z,12.95
2023-05-19T23:22:40.126Z,12.91
2023-05-19T23:25:07.859Z,12.88
2023-05-19T23:27:35.596Z,12.83
2023-05-19T23:30:02.901Z,12.79
2023-05-19T23:32:29.611Z,12.68
2023-05-19T23:34:56.328Z,12.68
2023-05-19T23:37:22.957Z,12.62
2023-05-19T23:39:49.554Z,12.60
2023-05-19T23:42:16.308Z,12.62
2023-05-19T23:44:42.955Z,12.68
2023-05-19T23:47:10.843Z,12.83
2023-05-19T23:49:37.506Z,12.71
2023-05-19T23:52:04.129Z,12.68
2023-05-19T23:54:31.065Z,12.67
2023-05-19T23:56:58.476Z,12.68
2023-05-19T23:59:25.328Z,12.63
